Time;durP1;ratioP1;P1;durP2;ratioP2;P2;SDS_P1;SDS_P2;PMS_P1;PMS_P2;Temp;Humidity;BMP_temperature;BMP_pressure;BME280_temperature;BME280_humidity;BME280_pressure;Samples;Min_cycle;Max_cycle;Signal;HPM_P1;HPM_P2
2023/10/19 20:23:00;;;;;;;;;;;;;;;;;;7359866;19;19918;-90
2023/10/19 20:25:28;;;;;;;;;;;;;;;;;;7428302;19;19903;-90
2023/10/19 20:27:55;;;;;;;;;;;;;;;;;;7427316;19;19903;-89
2023/10/19 20:30:25;;;;;;;;;;;;;;;;;;7429054;19;19923;-87
2023/10/19 20:32:55;;;;;;;;;;;;;;;;;;7422429;19;19914;-89
2023/10/19 20:35:44;;;;;;;;;;;;;;;;;;7401393;19;19911;-88
2023/10/19 21:11:20;;;;;;;0.70;0.70;;;;;;;;;;7394121;19;20457;-91
2023/10/19 21:17:22;;;;;;;0.50;0.50;;;;;;;;;;7389411;19;20875;-92
2023/10/19 21:23:53;;;;;;;1.40;1.40;;;;;;;;;;7391673;19;20356;-91
2023/10/19 21:38:24;;;;;;;1.00;1.00;;;;;;;;;;7386467;19;20349;-90
2023/10/19 21:40:52;;;;;;;1.05;0.98;;;;;;;;;;7391642;19;20900;-88
2023/10/19 21:43:19;;;;;;;0.88;0.88;;;;;;;;;;7397528;19;20889;-90
2023/10/19 21:45:46;;;;;;;0.70;0.70;;;;;;;;;;7401968;19;20873;-89
2023/10/19 21:48:13;;;;;;;1.17;0.82;;;;;;;;;;7398773;19;20805;-89
2023/10/19 21:50:40;;;;;;;0.63;0.63;;;;;;;;;;7394969;19;20349;-89
2023/10/19 21:53:12;;;;;;;1.48;1.42;;;;;;;;;;7395495;19;20436;-89
2023/10/19 21:55:43;;;;;;;1.45;1.35;;;;;;;;;;7393550;19;20340;-89
2023/10/19 21:58:10;;;;;;;1.10;1.02;;;;;;;;;;7389832;19;20348;-89
2023/10/19 22:00:37;;;;;;;0.77;0.77;;;;;;;;;;7393983;19;20345;-88
2023/10/19 22:03:04;;;;;;;1.10;1.10;;;;;;;;;;7394768;19;20360;-88
2023/10/19 22:05:38;;;;;;;0.63;0.63;;;;;;;;;;7396411;19;20377;-88
2023/10/19 22:08:09;;;;;;;0.80;0.80;;;;;;;;;;7398860;19;20376;-88
2023/10/19 22:10:37;;;;;;;0.82;0.82;;;;;;;;;;7397886;19;20372;-88
2023/10/19 22:13:04;;;;;;;0.80;0.80;;;;;;;;;;7395306;19;20381;-90
2023/10/19 22:15:31;;;;;;;0.60;0.60;;;;;;;;;;7398458;19;20394;-89
2023/10/19 22:17:58;;;;;;;1.10;0.93;;;;;;;;;;7395287;19;20324;-88
2023/10/19 22:20:25;;;;;;;0.77;0.77;;;;;;;;;;7396137;19;20348;-89
2023/10/19 22:22:52;;;;;;;1.00;1.00;;;;;;;;;;7391756;19;20380;-90
2023/10/19 22:25:20;;;;;;;0.80;0.80;;;;;;;;;;7396013;19;20412;-89
2023/10/19 22:27:54;;;;;;;4.05;1.13;;;;;;;;;;7393356;19;20376;-89
2023/10/19 22:30:24;;;;;;;0.85;0.85;;;;;;;;;;7395248;19;20427;-89
2023/10/19 22:32:51;;;;;;;0.90;0.80;;;;;;;;;;7392398;19;20356;-88
2023/10/19 22:35:18;;;;;;;0.73;0.73;;;;;;;;;;7393703;19;20337;-88
2023/10/19 22:37:46;;;;;;;1.17;1.10;;;;;;;;;;7393134;19;20353;-88
2023/10/19 22:40:12;;;;;;;0.70;0.70;;;;;;;;;;7399182;19;20884;-88
2023/10/19 22:42:39;;;;;;;0.50;0.50;;;;;;;;;;7398494;19;20897;-87
2023/10/19 22:45:07;;;;;;;0.70;0.70;;;;;;;;;;7395078;19;20952;-88
2023/10/19 22:47:34;;;;;;;0.63;0.63;;;;;;;;;;7398558;19;20356;-90
2023/10/19 22:50:02;;;;;;;0.83;0.57;;;;;;;;;;7401236;19;20351;-90
2023/10/19 22:52:29;;;;;;;0.37;0.37;;;;;;;;;;7399247;19;20385;-89
2023/10/19 22:54:56;;;;;;;1.17;0.88;;;;;;;;;;7400849;19;20356;-90
2023/10/19 22:57:23;;;;;;;0.50;0.50;;;;;;;;;;7398478;19;20370;-88
2023/10/19 22:59:49;;;;;;;0.60;0.60;;;;;;;;;;7402390;19;20975;-89
2023/10/19 23:02:16;;;;;;;0.82;0.82;;;;;;;;;;7399540;19;20833;-88
2023/10/19 23:04:45;;;;;;;0.50;0.50;;;;;;;;;;7399930;19;20682;-89
2023/10/19 23:07:12;;;;;;;0.63;0.63;;;;;;;;;;7399469;19;20433;-88
2023/10/19 23:09:40;;;;;;;1.63;0.80;;;;;;;;;;7394208;19;20339;-88
2023/10/19 23:12:12;;;;;;;0.63;0.63;;;;;;;;;;7396022;19;20355;-88
2023/10/19 23:14:45;;;;;;;0.60;0.60;;;;;;;;;;7398604;19;20356;-88
2023/10/19 23:17:15;;;;;;;0.40;0.40;;;;;;;;;;7397331;19;20367;-88
2023/10/19 23:19:45;;;;;;;0.50;0.50;;;;;;;;;;7399062;19;20725;-90
2023/10/19 23:22:15;;;;;;;0.50;0.50;;;;;;;;;;7394438;19;20361;-88
2023/10/19 23:24:43;;;;;;;0.70;0.70;;;;;;;;;;7393424;19;20420;-87
2023/10/19 23:27:10;;;;;;;0.57;0.57;;;;;;;;;;7398064;19;20359;-89
2023/10/19 23:29:44;;;;;;;0.70;0.70;;;;;;;;;;7406057;19;20423;-89
2023/10/19 23:32:16;;;;;;;0.52;0.52;;;;;;;;;;7403539;19;20850;-88
2023/10/19 23:34:47;;;;;;;0.50;0.50;;;;;;;;;;7402331;19;20324;-89
2023/10/19 23:37:15;;;;;;;0.50;0.50;;;;;;;;;;7401314;19;20333;-88
2023/10/19 23:39:45;;;;;;;1.00;0.80;;;;;;;;;;7404604;19;20421;-89
2023/10/19 23:42:14;;;;;;;0.98;0.88;;;;;;;;;;7404151;19;20351;-89
2023/10/19 23:44:41;;;;;;;0.30;0.30;;;;;;;;;;7398902;19;20357;-88
2023/10/19 23:47:08;;;;;;;0.75;0.75;;;;;;;;;;7401608;19;20352;-87
2023/10/19 23:49:35;;;;;;;0.60;0.60;;;;;;;;;;7401219;19;20355;-88
2023/10/19 23:52:02;;;;;;;0.50;0.50;;;;;;;;;;7393235;19;20707;-89
2023/10/19 23:54:29;;;;;;;0.50;0.50;;;;;;;;;;7398958;19;20320;-87
2023/10/19 23:56:57;;;;;;;0.50;0.50;;;;;;;;;;7398033;19;20912;-87
2023/10/19 23:59:24;;;;;;;0.68;0.68;;;;;;;;;;7401240;19;20360;-88
